Terminal Aerodrome Forecast
Issued by NWS

Home | Current Version | Previous Version | Text Only | Print | Product List | Glossary On
Versions: 1 2 3 4 5 6 7 8 9 10 11 12 13 14
549
FTUS44 KEPZ 180220 AAA
TAFTCS
TAF AMD
KTCS 180220Z 1802/1824 35006KT P6SM VCSH SCT016 SCT040 OVC060
      TEMPO 1802/1804 BKN016 OVC040
     FM181000 35006KT 4SM -RA SCT020 BKN030 OVC050
     FM181400 36005KT P6SM VCSH BKN070=

USA.gov is the U.S. government's official web portal to all federal, state and local government web resources and services.